sensor_id;sensor_type;location;lat;lon;timestamp;pressure;altitude;pressure_sealevel;temperature;humidity
59053;BME280;44843;44.728;10.396;2023-07-02T00:00:34;99750.25;;;22.29;nan
59053;BME280;44843;44.728;10.396;2023-07-02T00:03:01;99749.16;;;22.38;nan
59053;BME280;44843;44.728;10.396;2023-07-02T00:05:27;99744.97;;;22.44;nan
59053;BME280;44843;44.728;10.396;2023-07-02T00:07:53;99744.03;;;22.52;nan
59053;BME280;44843;44.728;10.396;2023-07-02T00:10:18;99748.38;;;22.53;nan
59053;BME280;44843;44.728;10.396;2023-07-02T00:12:43;99739.38;;;22.54;nan
59053;BME280;44843;44.728;10.396;2023-07-02T00:15:09;99747.00;;;22.57;nan
59053;BME280;44843;44.728;10.396;2023-07-02T00:17:35;99751.28;;;22.58;nan
59053;BME280;44843;44.728;10.396;2023-07-02T00:20:06;99747.53;;;22.52;nan
59053;BME280;44843;44.728;10.396;2023-07-02T00:22:31;99751.47;;;22.41;nan
59053;BME280;44843;44.728;10.396;2023-07-02T00:25:01;99753.81;;;22.36;nan
59053;BME280;44843;44.728;10.396;2023-07-02T00:27:26;99754.91;;;22.27;nan
59053;BME280;44843;44.728;10.396;2023-07-02T00:29:52;99752.94;;;22.21;nan
59053;BME280;44843;44.728;10.396;2023-07-02T00:32:17;99761.00;;;22.13;nan
59053;BME280;44843;44.728;10.396;2023-07-02T00:34:42;99756.22;;;22.08;nan
59053;BME280;44843;44.728;10.396;2023-07-02T00:37:08;99752.81;;;21.99;nan
59053;BME280;44843;44.728;10.396;2023-07-02T00:39:33;99761.72;;;22.07;nan
59053;BME280;44843;44.728;10.396;2023-07-02T00:42:02;99752.91;;;22.06;nan
59053;BME280;44843;44.728;10.396;2023-07-02T00:44:28;99754.84;;;21.97;nan
59053;BME280;44843;44.728;10.396;2023-07-02T00:46:53;99752.03;;;21.91;nan
59053;BME280;44843;44.728;10.396;2023-07-02T00:49:19;99758.91;;;21.85;nan
59053;BME280;44843;44.728;10.396;2023-07-02T00:51:45;99754.78;;;21.83;nan
59053;BME280;44843;44.728;10.396;2023-07-02T00:54:10;99750.25;;;21.91;nan
59053;BME280;44843;44.728;10.396;2023-07-02T00:56:35;99749.00;;;22.02;nan
59053;BME280;44843;44.728;10.396;2023-07-02T00:59:01;99752.41;;;22.11;nan
59053;BME280;44843;44.728;10.396;2023-07-02T01:01:27;99749.84;;;22.17;nan
59053;BME280;44843;44.728;10.396;2023-07-02T01:04:00;99751.78;;;22.24;nan
59053;BME280;44843;44.728;10.396;2023-07-02T01:06:28;99751.28;;;22.28;nan
59053;BME280;44843;44.728;10.396;2023-07-02T01:08:59;99749.59;;;22.27;nan
59053;BME280;44843;44.728;10.396;2023-07-02T01:11:28;99753.28;;;22.26;nan
59053;BME280;44843;44.728;10.396;2023-07-02T01:13:59;99757.75;;;22.26;nan
59053;BME280;44843;44.728;10.396;2023-07-02T01:16:27;99745.59;;;22.08;nan
59053;BME280;44843;44.728;10.396;2023-07-02T01:18:55;99753.34;;;21.95;nan
59053;BME280;44843;44.728;10.396;2023-07-02T01:21:23;99752.13;;;21.83;nan
59053;BME280;44843;44.728;10.396;2023-07-02T01:23:49;99763.72;;;21.81;nan
59053;BME280;44843;44.728;10.396;2023-07-02T01:26:15;99755.97;;;21.80;nan
59053;BME280;44843;44.728;10.396;2023-07-02T01:28:41;99754.47;;;21.77;nan
59053;BME280;44843;44.728;10.396;2023-07-02T01:31:06;99755.41;;;21.62;nan
59053;BME280;44843;44.728;10.396;2023-07-02T01:33:32;99758.13;;;21.53;nan
59053;BME280;44843;44.728;10.396;2023-07-02T01:35:57;99752.47;;;21.56;nan
59053;BME280;44843;44.728;10.396;2023-07-02T01:38:23;99756.13;;;21.55;nan
59053;BME280;44843;44.728;10.396;2023-07-02T01:40:48;99747.06;;;21.50;nan
59053;BME280;44843;44.728;10.396;2023-07-02T01:43:14;99745.22;;;21.50;nan
59053;BME280;44843;44.728;10.396;2023-07-02T01:45:41;99751.47;;;21.57;nan
59053;BME280;44843;44.728;10.396;2023-07-02T01:48:07;99747.63;;;21.60;nan
59053;BME280;44843;44.728;10.396;2023-07-02T01:50:32;99752.81;;;21.53;nan
59053;BME280;44843;44.728;10.396;2023-07-02T01:52:57;99751.28;;;21.59;nan
59053;BME280;44843;44.728;10.396;2023-07-02T01:55:23;99748.41;;;21.69;nan
59053;BME280;44843;44.728;10.396;2023-07-02T01:57:48;99751.00;;;21.77;nan
59053;BME280;44843;44.728;10.396;2023-07-02T02:00:14;99749.38;;;21.91;nan
59053;BME280;44843;44.728;10.396;2023-07-02T02:02:39;99749.38;;;21.91;nan
59053;BME280;44843;44.728;10.396;2023-07-02T02:05:05;99748.22;;;21.93;nan
59053;BME280;44843;44.728;10.396;2023-07-02T02:07:30;99744.28;;;21.89;nan
59053;BME280;44843;44.728;10.396;2023-07-02T02:09:56;99740.28;;;21.93;nan
59053;BME280;44843;44.728;10.396;2023-07-02T02:12:21;99740.03;;;21.80;nan
59053;BME280;44843;44.728;10.396;2023-07-02T02:14:46;99749.25;;;21.69;nan
59053;BME280;44843;44.728;10.396;2023-07-02T02:17:12;99748.47;;;21.60;nan
59053;BME280;44843;44.728;10.396;2023-07-02T02:19:37;99755.94;;;21.57;nan
59053;BME280;44843;44.728;10.396;2023-07-02T02:22:03;99758.13;;;21.53;nan
59053;BME280;44843;44.728;10.396;2023-07-02T02:24:28;99750.88;;;21.47;nan
59053;BME280;44843;44.728;10.396;2023-07-02T02:26:53;99754.53;;;21.46;nan
59053;BME280;44843;44.728;10.396;2023-07-02T02:29:19;99757.19;;;21.38;nan
59053;BME280;44843;44.728;10.396;2023-07-02T02:31:44;99759.06;;;21.29;nan
59053;BME280;44843;44.728;10.396;2023-07-02T02:34:09;99752.94;;;21.29;nan
59053;BME280;44843;44.728;10.396;2023-07-02T02:36:35;99755.09;;;21.25;nan
59053;BME280;44843;44.728;10.396;2023-07-02T02:39:00;99760.09;;;21.20;nan
59053;BME280;44843;44.728;10.396;2023-07-02T02:41:26;99753.47;;;21.24;nan
59053;BME280;44843;44.728;10.396;2023-07-02T02:43:51;99750.44;;;21.27;nan
59053;BME280;44843;44.728;10.396;2023-07-02T02:46:20;99757.25;;;21.30;nan
59053;BME280;44843;44.728;10.396;2023-07-02T02:48:49;99753.72;;;21.46;nan
59053;BME280;44843;44.728;10.396;2023-07-02T02:51:15;99748.53;;;21.52;nan
59053;BME280;44843;44.728;10.396;2023-07-02T02:53:40;99750.13;;;21.62;nan
59053;BME280;44843;44.728;10.396;2023-07-02T02:56:06;99757.25;;;21.61;nan
59053;BME280;44843;44.728;10.396;2023-07-02T02:58:31;99755.81;;;21.50;nan
59053;BME280;44843;44.728;10.396;2023-07-02T03:00:57;99749.06;;;21.48;nan
59053;BME280;44843;44.728;10.396;2023-07-02T03:03:22;99764.44;;;21.52;nan
59053;BME280;44843;44.728;10.396;2023-07-02T03:05:50;99755.19;;;21.40;nan
59053;BME280;44843;44.728;10.396;2023-07-02T03:08:15;99758.19;;;21.37;nan
59053;BME280;44843;44.728;10.396;2023-07-02T03:10:41;99761.06;;;21.27;nan
59053;BME280;44843;44.728;10.396;2023-07-02T03:13:06;99761.28;;;21.17;nan
59053;BME280;44843;44.728;10.396;2023-07-02T03:15:32;99766.28;;;21.12;nan
59053;BME280;44843;44.728;10.396;2023-07-02T03:17:57;99762.66;;;21.05;nan
59053;BME280;44843;44.728;10.396;2023-07-02T03:20:22;99762.50;;;20.98;nan
59053;BME280;44843;44.728;10.396;2023-07-02T03:22:48;99770.97;;;20.94;nan
59053;BME280;44843;44.728;10.396;2023-07-02T03:25:14;99778.91;;;21.02;nan
59053;BME280;44843;44.728;10.396;2023-07-02T03:27:39;99776.91;;;21.04;nan
59053;BME280;44843;44.728;10.396;2023-07-02T03:30:05;99777.06;;;21.03;nan
59053;BME280;44843;44.728;10.396;2023-07-02T03:32:31;99776.91;;;21.04;nan
59053;BME280;44843;44.728;10.396;2023-07-02T03:34:56;99783.41;;;20.93;nan
59053;BME280;44843;44.728;10.396;2023-07-02T03:37:21;99784.41;;;20.92;nan
59053;BME280;44843;44.728;10.396;2023-07-02T03:39:47;99782.31;;;20.80;nan
59053;BME280;44843;44.728;10.396;2023-07-02T03:42:12;99783.59;;;20.84;nan
59053;BME280;44843;44.728;10.396;2023-07-02T03:44:37;99786.22;;;20.92;nan
59053;BME280;44843;44.728;10.396;2023-07-02T03:47:03;99786.50;;;21.05;nan
59053;BME280;44843;44.728;10.396;2023-07-02T03:49:28;99792.44;;;21.15;nan
59053;BME280;44843;44.728;10.396;2023-07-02T03:51:54;99791.59;;;21.23;nan
59053;BME280;44843;44.728;10.396;2023-07-02T03:54:19;99791.72;;;21.30;nan
59053;BME280;44843;44.728;10.396;2023-07-02T03:56:45;99791.22;;;21.26;nan
59053;BME280;44843;44.728;10.396;2023-07-02T03:59:10;99785.69;;;21.36;nan
59053;BME280;44843;44.728;10.396;2023-07-02T04:01:35;99798.63;;;21.39;nan
59053;BME280;44843;44.728;10.396;2023-07-02T04:04:01;99799.78;;;21.45;nan
59053;BME280;44843;44.728;10.396;2023-07-02T04:06:26;99798.13;;;21.44;nan
59053;BME280;44843;44.728;10.396;2023-07-02T04:08:52;99794.13;;;21.48;nan
59053;BME280;44843;44.728;10.396;2023-07-02T04:11:17;99802.56;;;21.51;nan
59053;BME280;44843;44.728;10.396;2023-07-02T04:13:42;99801.34;;;21.62;nan
59053;BME280;44843;44.728;10.396;2023-07-02T04:16:08;99809.09;;;21.72;nan
59053;BME280;44843;44.728;10.396;2023-07-02T04:18:33;99805.97;;;21.60;nan
59053;BME280;44843;44.728;10.396;2023-07-02T04:20:59;99806.31;;;21.88;nan
59053;BME280;44843;44.728;10.396;2023-07-02T04:23:25;99813.38;;;22.42;nan
59053;BME280;44843;44.728;10.396;2023-07-02T04:25:50;99821.03;;;22.75;nan
59053;BME280;44843;44.728;10.396;2023-07-02T04:28:16;99814.91;;;23.04;nan
59053;BME280;44843;44.728;10.396;2023-07-02T04:30:42;99815.34;;;22.93;nan
59053;BME280;44843;44.728;10.396;2023-07-02T04:33:08;99814.81;;;23.12;nan
59053;BME280;44843;44.728;10.396;2023-07-02T04:35:33;99818.00;;;23.74;nan
59053;BME280;44843;44.728;10.396;2023-07-02T04:38:00;99813.22;;;23.84;nan
59053;BME280;44843;44.728;10.396;2023-07-02T04:40:25;99818.09;;;24.23;nan
59053;BME280;44843;44.728;10.396;2023-07-02T04:42:51;99821.75;;;24.72;nan
59053;BME280;44843;44.728;10.396;2023-07-02T04:45:24;99817.28;;;25.69;nan
59053;BME280;44843;44.728;10.396;2023-07-02T04:47:50;99820.66;;;28.38;nan
59053;BME280;44843;44.728;10.396;2023-07-02T04:50:16;99816.03;;;31.23;nan
59053;BME280;44843;44.728;10.396;2023-07-02T04:52:42;99822.97;;;32.77;nan
59053;BME280;44843;44.728;10.396;2023-07-02T04:55:07;99819.97;;;34.21;nan
59053;BME280;44843;44.728;10.396;2023-07-02T04:57:33;99824.38;;;35.33;nan
59053;BME280;44843;44.728;10.396;2023-07-02T04:59:58;99830.22;;;36.19;nan
59053;BME280;44843;44.728;10.396;2023-07-02T05:02:23;99834.19;;;36.78;nan
59053;BME280;44843;44.728;10.396;2023-07-02T05:04:49;99837.66;;;37.09;nan
59053;BME280;44843;44.728;10.396;2023-07-02T05:07:15;99843.69;;;37.50;nan
59053;BME280;44843;44.728;10.396;2023-07-02T05:09:41;99844.16;;;38.02;nan
59053;BME280;44843;44.728;10.396;2023-07-02T05:12:06;99834.22;;;38.46;nan
59053;BME280;44843;44.728;10.396;2023-07-02T05:14:32;99835.84;;;39.00;nan
59053;BME280;44843;44.728;10.396;2023-07-02T05:16:57;99830.63;;;39.23;nan
59053;BME280;44843;44.728;10.396;2023-07-02T05:19:23;99831.91;;;39.68;nan
59053;BME280;44843;44.728;10.396;2023-07-02T05:21:48;99833.41;;;40.12;nan
59053;BME280;44843;44.728;10.396;2023-07-02T05:24:13;99832.97;;;40.38;nan
59053;BME280;44843;44.728;10.396;2023-07-02T05:26:39;99829.16;;;40.53;nan
59053;BME280;44843;44.728;10.396;2023-07-02T05:29:04;99836.41;;;40.30;nan
59053;BME280;44843;44.728;10.396;2023-07-02T05:31:30;99830.84;;;40.63;nan
59053;BME280;44843;44.728;10.396;2023-07-02T05:33:56;99834.91;;;41.21;nan
59053;BME280;44843;44.728;10.396;2023-07-02T05:36:22;61389.06;;;-146.16;100.00
59053;BME280;44843;44.728;10.396;2023-07-02T05:38:47;61389.06;;;-146.16;100.00
59053;BME280;44843;44.728;10.396;2023-07-02T05:41:21;61389.06;;;-146.16;100.00
59053;BME280;44843;44.728;10.396;2023-07-02T05:43:47;61389.06;;;-146.16;100.00
59053;BME280;44843;44.728;10.396;2023-07-02T05:46:13;61389.06;;;-146.16;100.00
59053;BME280;44843;44.728;10.396;2023-07-02T05:48:40;61389.06;;;-146.16;100.00
59053;BME280;44843;44.728;10.396;2023-07-02T05:51:05;61389.06;;;-146.16;100.00
59053;BME280;44843;44.728;10.396;2023-07-02T05:53:30;61389.06;;;-146.16;100.00
59053;BME280;44843;44.728;10.396;2023-07-02T05:55:56;61389.06;;;-146.16;100.00
59053;BME280;44843;44.728;10.396;2023-07-02T05:58:21;61389.06;;;-146.16;100.00
59053;BME280;44843;44.728;10.396;2023-07-02T06:00:47;99854.19;;;42.42;nan
59053;BME280;44843;44.728;10.396;2023-07-02T06:03:15;99849.72;;;42.86;nan
59053;BME280;44843;44.728;10.396;2023-07-02T06:05:48;99850.03;;;42.85;nan
59053;BME280;44843;44.728;10.396;2023-07-02T06:08:15;99854.81;;;42.39;nan
59053;BME280;44843;44.728;10.396;2023-07-02T06:10:40;99848.69;;;39.43;nan
59053;BME280;44843;44.728;10.396;2023-07-02T06:13:06;99858.69;;;37.87;nan
59053;BME280;44843;44.728;10.396;2023-07-02T06:15:31;99861.63;;;35.84;nan
59053;BME280;44843;44.728;10.396;2023-07-02T06:17:57;99853.56;;;33.98;nan
59053;BME280;44843;44.728;10.396;2023-07-02T06:20:22;99861.72;;;34.03;nan
59053;BME280;44843;44.728;10.396;2023-07-02T06:22:47;99865.19;;;33.50;nan
59053;BME280;44843;44.728;10.396;2023-07-02T06:25:13;99864.25;;;32.95;nan
59053;BME280;44843;44.728;10.396;2023-07-02T06:27:38;99867.06;;;32.49;nan
59053;BME280;44843;44.728;10.396;2023-07-02T06:30:04;99863.16;;;32.06;nan
59053;BME280;44843;44.728;10.396;2023-07-02T06:32:31;99861.59;;;31.53;nan
59053;BME280;44843;44.728;10.396;2023-07-02T06:34:56;99866.97;;;31.12;nan
59053;BME280;44843;44.728;10.396;2023-07-02T06:37:21;99871.31;;;31.02;nan
59053;BME280;44843;44.728;10.396;2023-07-02T06:39:47;99865.13;;;31.01;nan
59053;BME280;44843;44.728;10.396;2023-07-02T06:42:12;99865.22;;;30.71;nan
59053;BME280;44843;44.728;10.396;2023-07-02T06:44:37;99862.53;;;30.47;nan
59053;BME280;44843;44.728;10.396;2023-07-02T06:47:03;99860.31;;;30.68;nan
59053;BME280;44843;44.728;10.396;2023-07-02T06:49:28;99865.47;;;30.57;nan
59053;BME280;44843;44.728;10.396;2023-07-02T06:51:53;99866.53;;;30.68;nan
59053;BME280;44843;44.728;10.396;2023-07-02T06:54:18;99869.06;;;30.28;nan
59053;BME280;44843;44.728;10.396;2023-07-02T06:56:44;99868.53;;;30.19;nan
59053;BME280;44843;44.728;10.396;2023-07-02T06:59:09;99869.91;;;30.40;nan
59053;BME280;44843;44.728;10.396;2023-07-02T07:01:34;99866.28;;;30.46;nan
59053;BME280;44843;44.728;10.396;2023-07-02T07:04:01;99870.91;;;30.27;nan
59053;BME280;44843;44.728;10.396;2023-07-02T07:06:26;99869.75;;;29.93;nan
59053;BME280;44843;44.728;10.396;2023-07-02T07:08:51;99873.09;;;30.07;nan
59053;BME280;44843;44.728;10.396;2023-07-02T07:11:17;99880.94;;;30.20;nan
59053;BME280;44843;44.728;10.396;2023-07-02T07:13:42;99882.28;;;29.99;nan
59053;BME280;44843;44.728;10.396;2023-07-02T07:16:08;99876.59;;;30.19;nan
59053;BME280;44843;44.728;10.396;2023-07-02T07:18:34;99883.75;;;29.65;nan
59053;BME280;44843;44.728;10.396;2023-07-02T07:20:59;99876.91;;;29.99;nan
59053;BME280;44843;44.728;10.396;2023-07-02T07:23:25;99880.47;;;30.23;nan
59053;BME280;44843;44.728;10.396;2023-07-02T07:25:50;99876.63;;;29.89;nan
59053;BME280;44843;44.728;10.396;2023-07-02T07:28:15;99879.16;;;30.14;nan
59053;BME280;44843;44.728;10.396;2023-07-02T07:30:42;99877.47;;;29.89;nan
59053;BME280;44843;44.728;10.396;2023-07-02T07:33:07;99883.25;;;29.56;nan
59053;BME280;44843;44.728;10.396;2023-07-02T07:35:33;99881.63;;;29.36;nan
59053;BME280;44843;44.728;10.396;2023-07-02T07:37:58;99880.81;;;29.36;nan
59053;BME280;44843;44.728;10.396;2023-07-02T07:40:23;99879.06;;;29.78;nan
59053;BME280;44843;44.728;10.396;2023-07-02T07:42:48;99884.06;;;29.75;nan
59053;BME280;44843;44.728;10.396;2023-07-02T07:45:14;99882.06;;;29.70;nan
59053;BME280;44843;44.728;10.396;2023-07-02T07:47:39;99880.47;;;29.32;nan
59053;BME280;44843;44.728;10.396;2023-07-02T07:50:04;99888.81;;;29.24;nan
59053;BME280;44843;44.728;10.396;2023-07-02T07:52:35;99885.78;;;29.51;nan
59053;BME280;44843;44.728;10.396;2023-07-02T07:55:01;99892.97;;;29.38;nan
59053;BME280;44843;44.728;10.396;2023-07-02T07:57:26;99887.00;;;29.36;nan
59053;BME280;44843;44.728;10.396;2023-07-02T07:59:51;99885.50;;;29.59;nan
59053;BME280;44843;44.728;10.396;2023-07-02T08:02:16;99878.16;;;29.85;nan
59053;BME280;44843;44.728;10.396;2023-07-02T08:04:42;99888.78;;;29.61;nan
59053;BME280;44843;44.728;10.396;2023-07-02T08:07:07;99893.47;;;29.47;nan
59053;BME280;44843;44.728;10.396;2023-07-02T08:09:34;99889.91;;;29.72;nan
59053;BME280;44843;44.728;10.396;2023-07-02T08:11:59;99891.63;;;29.48;nan
59053;BME280;44843;44.728;10.396;2023-07-02T08:14:24;99892.69;;;29.28;nan
59053;BME280;44843;44.728;10.396;2023-07-02T08:16:50;99900.81;;;28.96;nan
59053;BME280;44843;44.728;10.396;2023-07-02T08:19:16;99895.44;;;29.22;nan
59053;BME280;44843;44.728;10.396;2023-07-02T08:21:41;99897.19;;;28.91;nan
59053;BME280;44843;44.728;10.396;2023-07-02T08:24:07;99893.50;;;29.29;nan
59053;BME280;44843;44.728;10.396;2023-07-02T08:26:32;99903.69;;;29.57;nan
59053;BME280;44843;44.728;10.396;2023-07-02T08:28:57;99896.47;;;29.21;nan
59053;BME280;44843;44.728;10.396;2023-07-02T08:31:23;99901.69;;;29.15;nan
59053;BME280;44843;44.728;10.396;2023-07-02T08:33:48;99901.69;;;28.90;nan
59053;BME280;44843;44.728;10.396;2023-07-02T08:36:13;99901.88;;;28.95;nan
59053;BME280;44843;44.728;10.396;2023-07-02T08:38:39;99889.09;;;29.16;nan
59053;BME280;44843;44.728;10.396;2023-07-02T08:41:06;99897.16;;;29.16;nan
59053;BME280;44843;44.728;10.396;2023-07-02T08:43:32;99891.09;;;29.21;nan
59053;BME280;44843;44.728;10.396;2023-07-02T08:45:57;99892.31;;;29.43;nan
59053;BME280;44843;44.728;10.396;2023-07-02T08:48:22;99898.13;;;29.22;nan
59053;BME280;44843;44.728;10.396;2023-07-02T08:50:49;99895.94;;;29.49;nan
59053;BME280;44843;44.728;10.396;2023-07-02T08:53:15;99898.56;;;29.74;nan
59053;BME280;44843;44.728;10.396;2023-07-02T08:55:40;99896.84;;;29.43;nan
59053;BME280;44843;44.728;10.396;2023-07-02T08:58:05;99900.13;;;29.45;nan
59053;BME280;44843;44.728;10.396;2023-07-02T09:00:31;99893.50;;;29.29;nan
59053;BME280;44843;44.728;10.396;2023-07-02T09:03:10;99901.59;;;29.41;nan
59053;BME280;44843;44.728;10.396;2023-07-02T09:05:35;99893.09;;;29.07;nan
59053;BME280;44843;44.728;10.396;2023-07-02T09:08:00;99899.72;;;29.04;nan
59053;BME280;44843;44.728;10.396;2023-07-02T09:10:26;99890.75;;;28.92;nan
59053;BME280;44843;44.728;10.396;2023-07-02T09:13:02;99895.81;;;28.82;nan
59053;BME280;44843;44.728;10.396;2023-07-02T09:15:27;99894.72;;;29.08;nan
59053;BME280;44843;44.728;10.396;2023-07-02T09:17:59;99904.91;;;28.81;nan
59053;BME280;44843;44.728;10.396;2023-07-02T09:20:31;99899.94;;;28.84;nan
59053;BME280;44843;44.728;10.396;2023-07-02T09:22:57;99901.56;;;28.85;nan
59053;BME280;44843;44.728;10.396;2023-07-02T09:25:33;99898.19;;;29.33;nan
59053;BME280;44843;44.728;10.396;2023-07-02T09:27:58;99893.28;;;28.87;nan
59053;BME280;44843;44.728;10.396;2023-07-02T09:30:23;99890.50;;;29.19;nan
59053;BME280;44843;44.728;10.396;2023-07-02T09:32:49;99891.78;;;29.16;nan
59053;BME280;44843;44.728;10.396;2023-07-02T09:35:14;99895.81;;;29.44;nan
59053;BME280;44843;44.728;10.396;2023-07-02T09:37:42;99893.91;;;29.07;nan
59053;BME280;44843;44.728;10.396;2023-07-02T09:40:07;99888.13;;;29.29;nan
59053;BME280;44843;44.728;10.396;2023-07-02T09:42:34;99890.00;;;29.28;nan
59053;BME280;44843;44.728;10.396;2023-07-02T09:45:00;99890.25;;;29.02;nan
59053;BME280;44843;44.728;10.396;2023-07-02T09:47:27;99896.94;;;28.92;nan
59053;BME280;44843;44.728;10.396;2023-07-02T09:49:54;99890.16;;;29.15;nan
59053;BME280;44843;44.728;10.396;2023-07-02T09:52:21;99897.09;;;29.41;nan
59053;BME280;44843;44.728;10.396;2023-07-02T09:54:46;99896.91;;;29.36;nan
59053;BME280;44843;44.728;10.396;2023-07-02T09:57:12;99891.63;;;29.48;nan
59053;BME280;44843;44.728;10.396;2023-07-02T09:59:37;99896.09;;;29.72;nan
59053;BME280;44843;44.728;10.396;2023-07-02T10:02:03;99879.41;;;29.82;nan
59053;BME280;44843;44.728;10.396;2023-07-02T10:04:38;99884.38;;;29.48;nan
59053;BME280;44843;44.728;10.396;2023-07-02T10:07:04;99875.13;;;29.44;nan
59053;BME280;44843;44.728;10.396;2023-07-02T10:09:36;99883.09;;;29.69;nan
59053;BME280;44843;44.728;10.396;2023-07-02T10:12:02;99879.66;;;29.62;nan
59053;BME280;44843;44.728;10.396;2023-07-02T10:14:43;99882.81;;;29.41;nan
59053;BME280;44843;44.728;10.396;2023-07-02T10:17:08;99880.47;;;29.32;nan
59053;BME280;44843;44.728;10.396;2023-07-02T10:19:34;99884.13;;;28.94;nan
59053;BME280;44843;44.728;10.396;2023-07-02T10:22:02;99876.13;;;29.13;nan
59053;BME280;44843;44.728;10.396;2023-07-02T10:24:28;99882.91;;;29.15;nan
59053;BME280;44843;44.728;10.396;2023-07-02T10:26:55;99885.25;;;29.05;nan
59053;BME280;44843;44.728;10.396;2023-07-02T10:29:21;99882.75;;;29.29;nan
59053;BME280;44843;44.728;10.396;2023-07-02T10:31:48;99877.16;;;29.12;nan
59053;BME280;44843;44.728;10.396;2023-07-02T10:34:13;99883.97;;;29.08;nan
59053;BME280;44843;44.728;10.396;2023-07-02T10:36:38;99881.03;;;29.53;nan
59053;BME280;44843;44.728;10.396;2023-07-02T10:39:03;99873.50;;;29.43;nan
59053;BME280;44843;44.728;10.396;2023-07-02T10:41:30;99884.31;;;29.36;nan
59053;BME280;44843;44.728;10.396;2023-07-02T10:44:05;99876.69;;;29.70;nan
59053;BME280;44843;44.728;10.396;2023-07-02T10:46:30;99882.72;;;29.66;nan
59053;BME280;44843;44.728;10.396;2023-07-02T10:48:56;99872.56;;;29.68;nan
59053;BME280;44843;44.728;10.396;2023-07-02T10:51:23;99879.97;;;30.03;nan
59053;BME280;44843;44.728;10.396;2023-07-02T10:53:59;99876.75;;;30.24;nan
59053;BME280;44843;44.728;10.396;2023-07-02T10:56:26;99874.56;;;30.33;nan
59053;BME280;44843;44.728;10.396;2023-07-02T10:58:52;99872.78;;;30.27;nan
59053;BME280;44843;44.728;10.396;2023-07-02T11:01:21;99870.81;;;30.34;nan
59053;BME280;44843;44.728;10.396;2023-07-02T11:03:54;99872.03;;;30.62;nan
59053;BME280;44843;44.728;10.396;2023-07-02T11:06:20;99872.09;;;30.43;nan
59053;BME280;44843;44.728;10.396;2023-07-02T11:08:45;99871.28;;;30.31;nan
59053;BME280;44843;44.728;10.396;2023-07-02T11:11:10;99868.13;;;30.46;nan
59053;BME280;44843;44.728;10.396;2023-07-02T11:13:43;99869.31;;;30.73;nan
59053;BME280;44843;44.728;10.396;2023-07-02T11:18:44;99865.13;;;30.00;nan
59053;BME280;44843;44.728;10.396;2023-07-02T11:21:09;99874.44;;;30.28;nan
59053;BME280;44843;44.728;10.396;2023-07-02T11:23:35;99859.84;;;30.47;nan
59053;BME280;44843;44.728;10.396;2023-07-02T11:26:01;99859.06;;;30.16;nan
59053;BME280;44843;44.728;10.396;2023-07-02T11:28:29;99858.97;;;30.23;nan
59053;BME280;44843;44.728;10.396;2023-07-02T11:30:55;99861.25;;;29.96;nan
59053;BME280;44843;44.728;10.396;2023-07-02T11:33:36;99869.56;;;29.46;nan
59053;BME280;44843;44.728;10.396;2023-07-02T11:36:02;99860.59;;;29.33;nan
59053;BME280;44843;44.728;10.396;2023-07-02T11:38:27;99859.50;;;29.23;nan
59053;BME280;44843;44.728;10.396;2023-07-02T11:40:52;99860.13;;;29.36;nan
59053;BME280;44843;44.728;10.396;2023-07-02T11:43:18;99864.50;;;29.19;nan
59053;BME280;44843;44.728;10.396;2023-07-02T11:45:43;99854.44;;;29.63;nan
59053;BME280;44843;44.728;10.396;2023-07-02T11:48:09;99856.00;;;30.01;nan
59053;BME280;44843;44.728;10.396;2023-07-02T11:50:34;99850.81;;;30.30;nan
59053;BME280;44843;44.728;10.396;2023-07-02T11:52:59;99851.50;;;30.25;nan
59053;BME280;44843;44.728;10.396;2023-07-02T11:55:25;99852.91;;;30.28;nan
59053;BME280;44843;44.728;10.396;2023-07-02T11:57:50;99853.72;;;30.28;nan
59053;BME280;44843;44.728;10.396;2023-07-02T12:00:15;99852.59;;;30.48;nan
59053;BME280;44843;44.728;10.396;2023-07-02T12:02:40;99854.00;;;30.50;nan
59053;BME280;44843;44.728;10.396;2023-07-02T12:05:06;99859.50;;;30.67;nan
59053;BME280;44843;44.728;10.396;2023-07-02T12:07:31;99854.63;;;30.88;nan
59053;BME280;44843;44.728;10.396;2023-07-02T12:09:56;99855.19;;;30.90;nan
59053;BME280;44843;44.728;10.396;2023-07-02T12:12:22;99854.81;;;30.98;nan
59053;BME280;44843;44.728;10.396;2023-07-02T12:14:47;99855.16;;;30.78;nan
59053;BME280;44843;44.728;10.396;2023-07-02T12:17:12;99854.69;;;30.69;nan
59053;BME280;44843;44.728;10.396;2023-07-02T12:19:40;99852.22;;;30.68;nan
59053;BME280;44843;44.728;10.396;2023-07-02T12:22:06;99854.84;;;30.86;nan
59053;BME280;44843;44.728;10.396;2023-07-02T12:24:31;99850.72;;;30.72;nan
59053;BME280;44843;44.728;10.396;2023-07-02T12:26:56;99854.13;;;30.91;nan
59053;BME280;44843;44.728;10.396;2023-07-02T12:29:22;99845.69;;;30.52;nan
59053;BME280;44843;44.728;10.396;2023-07-02T12:31:47;99845.22;;;30.43;nan
59053;BME280;44843;44.728;10.396;2023-07-02T12:34:12;99841.53;;;30.26;nan
59053;BME280;44843;44.728;10.396;2023-07-02T12:36:37;99839.13;;;30.24;nan
59053;BME280;44843;44.728;10.396;2023-07-02T12:39:03;99847.25;;;30.06;nan
59053;BME280;44843;44.728;10.396;2023-07-02T12:41:28;99845.03;;;30.26;nan
59053;BME280;44843;44.728;10.396;2023-07-02T12:43:54;99839.91;;;30.25;nan
59053;BME280;44843;44.728;10.396;2023-07-02T12:46:19;99848.34;;;30.28;nan
59053;BME280;44843;44.728;10.396;2023-07-02T12:48:44;99839.88;;;30.13;nan
59053;BME280;44843;44.728;10.396;2023-07-02T12:51:10;99834.00;;;30.34;nan
59053;BME280;44843;44.728;10.396;2023-07-02T12:53:35;99841.53;;;30.26;nan
59053;BME280;44843;44.728;10.396;2023-07-02T12:56:00;99843.94;;;30.34;nan
59053;BME280;44843;44.728;10.396;2023-07-02T12:58:26;99836.84;;;30.09;nan
59053;BME280;44843;44.728;10.396;2023-07-02T13:00:52;99840.84;;;30.07;nan
59053;BME280;44843;44.728;10.396;2023-07-02T13:03:17;99843.16;;;30.03;nan
59053;BME280;44843;44.728;10.396;2023-07-02T13:05:43;99840.50;;;30.27;nan